createdAt,value
2022-08-02T00:01:45.508Z,20.47
2022-08-02T00:04:13.351Z,20.51
2022-08-02T00:06:42.669Z,20.60
2022-08-02T00:09:10.517Z,20.58
2022-08-02T00:11:38.395Z,20.60
2022-08-02T00:14:11.065Z,20.53
2022-08-02T00:16:39.045Z,20.51
2022-08-02T00:21:35.008Z,20.43
2022-08-02T00:24:30.052Z,20.33
2022-08-02T00:26:52.266Z,20.21
2022-08-02T00:29:20.141Z,20.18
2022-08-02T00:31:48.010Z,20.27
2022-08-02T00:34:29.324Z,20.20
2022-08-02T00:36:59.812Z,20.16
2022-08-02T00:39:33.456Z,20.09
2022-08-02T00:44:31.851Z,20.09
2022-08-02T00:46:59.696Z,20.02
2022-08-02T00:49:27.606Z,20.10
2022-08-02T00:51:55.499Z,20.10
2022-08-02T00:54:23.342Z,20.03
2022-08-02T00:59:20.523Z,20.06
2022-08-02T01:01:56.626Z,20.09
2022-08-02T01:04:31.170Z,20.05
2022-08-02T01:07:00.620Z,20.06
2022-08-02T01:09:28.633Z,19.87
2022-08-02T01:11:57.875Z,19.87
2022-08-02T01:14:31.319Z,19.78
2022-08-02T01:17:07.305Z,19.70
2022-08-02T01:19:42.096Z,19.63
2022-08-02T01:22:58.036Z,19.52
2022-08-02T01:25:27.594Z,19.46
2022-08-02T01:28:29.414Z,19.49
2022-08-02T01:31:02.604Z,19.41
2022-08-02T01:33:36.611Z,19.37
2022-08-02T01:36:10.158Z,19.33
2022-08-02T01:38:41.468Z,19.30
2022-08-02T01:41:11.972Z,19.22
2022-08-02T01:43:43.602Z,19.16
2022-08-02T01:46:13.779Z,19.11
2022-08-02T01:48:43.605Z,19.08
2022-08-02T01:56:15.074Z,19.04
2022-08-02T01:58:45.601Z,19.03
2022-08-02T02:03:48.674Z,19.02
2022-08-02T02:06:18.064Z,19.00
2022-08-02T02:08:46.423Z,19.04
2022-08-02T02:12:12.001Z,18.97
2022-08-02T02:14:04.545Z,18.98
2022-08-02T02:16:34.552Z,19.10
2022-08-02T02:19:05.210Z,19.13
2022-08-02T02:21:35.209Z,19.10
2022-08-02T02:24:04.403Z,18.96
2022-08-02T02:26:38.451Z,18.97
2022-08-02T02:29:12.833Z,19.07
2022-08-02T02:31:43.835Z,19.14
2022-08-02T02:34:15.872Z,19.04
2022-08-02T02:36:48.896Z,19.06
2022-08-02T02:39:21.629Z,19.10
2022-08-02T02:41:50.957Z,19.01
2022-08-02T02:44:22.676Z,18.99
2022-08-02T02:46:53.814Z,19.01
2022-08-02T02:49:24.166Z,19.03
2022-08-02T02:51:53.117Z,19.08
2022-08-02T02:54:33.174Z,19.00
2022-08-02T02:57:04.477Z,19.01
2022-08-02T02:59:35.165Z,19.02
2022-08-02T03:02:04.600Z,19.08
2022-08-02T03:04:55.333Z,19.08
2022-08-02T03:07:21.036Z,19.16
2022-08-02T03:09:53.762Z,19.06
2022-08-02T03:12:28.430Z,18.98
2022-08-02T03:15:01.135Z,19.12
2022-08-02T03:20:12.523Z,19.00
2022-08-02T03:22:40.457Z,19.02
2022-08-02T03:25:09.886Z,18.91
2022-08-02T03:27:37.844Z,18.92
2022-08-02T03:30:10.118Z,18.93
2022-08-02T03:32:39.435Z,18.79
2022-08-02T03:35:11.593Z,18.66
2022-08-02T03:37:40.182Z,18.61
2022-08-02T03:40:10.560Z,18.56
2022-08-02T03:42:40.212Z,18.58
2022-08-02T03:45:13.073Z,18.64
2022-08-02T03:47:41.750Z,18.48
2022-08-02T03:50:12.763Z,18.49
2022-08-02T03:52:42.935Z,18.50
2022-08-02T03:55:11.769Z,18.50
2022-08-02T03:57:40.658Z,18.51
2022-08-02T04:00:11.987Z,18.47
2022-08-02T04:02:40.357Z,18.51
2022-08-02T04:05:09.645Z,18.52
2022-08-02T04:10:25.517Z,18.53
2022-08-02T04:12:52.791Z,18.56
2022-08-02T04:15:23.021Z,18.54
2022-08-02T04:18:00.417Z,18.50
2022-08-02T04:20:31.160Z,18.49
2022-08-02T04:23:02.685Z,18.46
2022-08-02T04:25:35.282Z,18.35
2022-08-02T04:28:15.461Z,18.33
2022-08-02T04:30:48.290Z,18.29
2022-08-02T04:33:16.533Z,18.26
2022-08-02T04:35:45.066Z,18.30
2022-08-02T04:38:14.669Z,18.29
2022-08-02T04:40:50.795Z,18.22
2022-08-02T04:43:18.745Z,18.29
2022-08-02T04:45:49.486Z,18.38
2022-08-02T04:48:17.340Z,18.32
2022-08-02T04:50:45.349Z,18.40
2022-08-02T04:53:13.222Z,18.46
2022-08-02T04:55:41.100Z,18.52
2022-08-02T04:58:24.140Z,18.49
2022-08-02T05:00:58.374Z,18.59
2022-08-02T05:03:26.246Z,18.65
2022-08-02T05:05:54.145Z,18.72
2022-08-02T05:08:22.129Z,18.69
2022-08-02T05:10:50.015Z,18.74
2022-08-02T05:13:17.930Z,18.86
2022-08-02T05:15:45.771Z,18.86
2022-08-02T05:20:43.062Z,18.98
2022-08-02T05:23:11.009Z,19.10
2022-08-02T05:25:38.925Z,18.97
2022-08-02T05:28:11.277Z,19.19
2022-08-02T05:30:39.752Z,19.35
2022-08-02T05:33:08.459Z,19.44
2022-08-02T05:35:37.662Z,19.51
2022-08-02T05:38:05.762Z,19.62
2022-08-02T05:40:54.219Z,19.62
2022-08-02T05:43:24.103Z,19.77
2022-08-02T05:48:22.216Z,19.50
2022-08-02T05:50:56.577Z,19.71
2022-08-02T05:53:35.470Z,19.73
2022-08-02T05:56:10.667Z,19.80
2022-08-02T05:58:49.545Z,19.67
2022-08-02T06:03:53.427Z,19.98
2022-08-02T06:08:59.398Z,20.27
2022-08-02T06:11:35.701Z,20.48
2022-08-02T06:14:04.905Z,20.67
2022-08-02T06:16:33.143Z,20.50
2022-08-02T06:19:10.874Z,20.58
2022-08-02T06:22:31.641Z,20.75
2022-08-02T06:24:31.749Z,20.93
2022-08-02T06:27:01.338Z,20.93
2022-08-02T06:29:35.695Z,20.81
2022-08-02T06:32:08.955Z,21.23
2022-08-02T06:34:38.372Z,21.24
2022-08-02T06:37:16.131Z,21.32
2022-08-02T06:39:46.923Z,21.57
2022-08-02T06:42:26.970Z,21.34
2022-08-02T06:44:57.673Z,21.51
2022-08-02T06:47:26.278Z,21.51
2022-08-02T06:49:54.981Z,21.58
2022-08-02T06:52:31.010Z,21.80
2022-08-02T06:55:00.658Z,21.84
2022-08-02T06:57:29.216Z,21.86
2022-08-02T06:59:58.524Z,22.10
2022-08-02T07:02:26.719Z,22.50
2022-08-02T07:04:55.591Z,22.29
2022-08-02T07:07:23.567Z,22.46
2022-08-02T07:09:56.432Z,22.50
2022-08-02T07:12:29.772Z,22.53
2022-08-02T07:14:58.426Z,22.81
2022-08-02T07:17:26.634Z,22.97
2022-08-02T07:19:54.468Z,23.19
2022-08-02T07:22:23.646Z,23.44
2022-08-02T07:24:53.108Z,23.14
2022-08-02T07:27:21.362Z,23.03
2022-08-02T07:29:49.604Z,23.29
2022-08-02T07:32:18.065Z,23.51
2022-08-02T07:39:55.569Z,23.85
2022-08-02T07:42:23.755Z,23.77
2022-08-02T07:44:51.786Z,23.49
2022-08-02T07:47:19.726Z,23.86
2022-08-02T07:49:47.582Z,23.50
2022-08-02T07:52:15.423Z,24.15
2022-08-02T07:54:43.237Z,24.51
2022-08-02T07:59:40.371Z,25.27
2022-08-02T08:02:08.757Z,25.49
2022-08-02T08:04:37.561Z,24.86
2022-08-02T08:07:06.284Z,25.44
2022-08-02T08:09:34.839Z,26.07
2022-08-02T08:12:02.695Z,26.48
2022-08-02T08:14:31.879Z,26.66
2022-08-02T08:17:01.783Z,27.61
2022-08-02T08:19:49.992Z,27.78
2022-08-02T08:22:17.862Z,27.96
2022-08-02T08:24:46.605Z,27.70
2022-08-02T08:27:15.792Z,27.45
2022-08-02T08:32:17.693Z,28.34
2022-08-02T08:34:45.924Z,28.79
2022-08-02T08:37:17.884Z,29.02
2022-08-02T08:42:24.333Z,30.40
2022-08-02T08:49:56.070Z,28.70
2022-08-02T08:52:27.104Z,29.18
2022-08-02T08:54:56.296Z,29.19
2022-08-02T08:57:30.047Z,29.17
2022-08-02T09:00:00.176Z,29.70
2022-08-02T09:07:25.419Z,29.42
2022-08-02T09:09:53.314Z,29.73
2022-08-02T09:12:25.126Z,28.96
2022-08-02T09:17:22.950Z,29.94
2022-08-02T09:22:36.503Z,28.53
2022-08-02T09:25:04.551Z,28.71
2022-08-02T09:27:37.327Z,29.10
2022-08-02T09:30:13.395Z,29.55
2022-08-02T09:36:07.296Z,30.34
2022-08-02T09:38:21.267Z,29.45
2022-08-02T09:40:49.135Z,30.17
2022-08-02T09:45:45.636Z,29.50
2022-08-02T09:48:14.987Z,30.50
2022-08-02T09:53:14.459Z,30.30
2022-08-02T09:55:42.656Z,30.64
2022-08-02T09:58:19.807Z,30.41
2022-08-02T10:00:59.075Z,31.93
2022-08-02T10:06:04.430Z,30.03
2022-08-02T10:13:33.104Z,31.83
2022-08-02T10:16:02.656Z,31.89
2022-08-02T10:18:41.070Z,31.71
2022-08-02T10:21:14.612Z,31.58
2022-08-02T10:26:17.381Z,30.65
2022-08-02T10:28:48.029Z,31.98
2022-08-02T10:36:23.823Z,31.25
2022-08-02T10:38:52.174Z,32.04
2022-08-02T10:41:48.638Z,30.32
2022-08-02T10:49:52.776Z,32.86
2022-08-02T10:57:23.547Z,31.92
2022-08-02T11:07:49.201Z,32.95
2022-08-02T11:10:38.660Z,32.46
2022-08-02T11:13:10.579Z,31.90
2022-08-02T11:15:57.154Z,32.38
2022-08-02T11:39:35.862Z,33.44
2022-08-02T12:12:32.003Z,34.30
2022-08-02T12:20:17.385Z,34.96
2022-08-02T12:28:18.289Z,34.18
2022-08-02T12:43:20.839Z,34.18
2022-08-02T14:14:50.636Z,35.60
2022-08-02T14:17:19.028Z,36.98
2022-08-02T16:47:37.152Z,32.80
2022-08-02T16:52:40.718Z,32.22
2022-08-02T16:55:11.417Z,32.50
2022-08-02T17:16:01.053Z,32.37
2022-08-02T17:18:27.922Z,31.80
2022-08-02T17:26:14.079Z,32.63
2022-08-02T17:57:06.585Z,32.93
2022-08-02T18:14:55.814Z,29.49
2022-08-02T18:19:54.052Z,29.35
2022-08-02T18:30:49.280Z,28.40
2022-08-02T18:36:05.856Z,28.17
2022-08-02T18:38:33.761Z,28.07
2022-08-02T18:46:15.590Z,27.76
2022-08-02T18:48:46.871Z,27.67
2022-08-02T18:53:51.337Z,27.40
2022-08-02T18:56:24.515Z,27.29
2022-08-02T19:04:00.875Z,26.91
2022-08-02T19:09:16.772Z,26.63
2022-08-02T19:14:24.233Z,26.42
2022-08-02T19:16:58.141Z,26.29
2022-08-02T19:22:16.394Z,26.09
2022-08-02T19:24:47.208Z,25.95
2022-08-02T19:27:21.887Z,25.86
2022-08-02T19:29:54.680Z,25.77
2022-08-02T19:35:19.065Z,25.66
2022-08-02T19:38:06.503Z,25.60
2022-08-02T19:40:34.731Z,25.55
2022-08-02T19:51:00.944Z,25.24
2022-08-02T19:53:46.944Z,25.14
2022-08-02T19:58:55.766Z,25.01
2022-08-02T20:01:36.528Z,24.91
2022-08-02T20:04:07.613Z,24.92
2022-08-02T20:09:14.056Z,24.77
2022-08-02T20:11:44.945Z,24.72
2022-08-02T20:14:14.341Z,24.66
2022-08-02T20:16:42.250Z,24.58
2022-08-02T20:21:42.717Z,24.36
2022-08-02T20:24:11.917Z,24.28
2022-08-02T20:26:47.988Z,24.22
2022-08-02T20:29:45.095Z,24.10
2022-08-02T20:32:07.913Z,24.06
2022-08-02T20:38:01.283Z,23.97
2022-08-02T20:39:53.848Z,23.94
2022-08-02T20:42:24.366Z,23.88
2022-08-02T20:47:28.043Z,23.66
2022-08-02T20:50:31.900Z,23.43
2022-08-02T20:53:00.361Z,23.38
2022-08-02T20:55:31.302Z,23.28
2022-08-02T21:00:32.186Z,23.17
2022-08-02T21:03:00.715Z,23.14
2022-08-02T21:05:43.648Z,23.03
2022-08-02T21:08:19.259Z,23.00
2022-08-02T21:10:52.077Z,22.98
2022-08-02T21:13:24.105Z,22.88
2022-08-02T21:15:55.423Z,22.76
2022-08-02T21:18:34.357Z,22.58
2022-08-02T21:21:08.797Z,22.39
2022-08-02T21:23:37.048Z,22.35
2022-08-02T21:28:43.788Z,22.06
2022-08-02T21:31:14.873Z,21.95
2022-08-02T21:33:56.692Z,21.88
2022-08-02T21:36:30.251Z,21.88
2022-08-02T21:39:00.287Z,21.92
2022-08-02T21:41:39.680Z,21.95
2022-08-02T21:46:46.038Z,21.93
2022-08-02T21:49:14.652Z,21.78
2022-08-02T21:51:49.234Z,21.70
2022-08-02T21:54:20.380Z,21.57
2022-08-02T21:56:50.167Z,21.44
2022-08-02T21:59:25.473Z,21.40
2022-08-02T22:01:57.568Z,21.40
2022-08-02T22:04:26.534Z,21.46
2022-08-02T22:06:54.834Z,21.42
2022-08-02T22:09:44.380Z,21.27
2022-08-02T22:12:16.629Z,21.22
2022-08-02T22:14:49.557Z,21.21
2022-08-02T22:17:49.796Z,21.17
2022-08-02T22:20:14.562Z,21.13
2022-08-02T22:22:43.554Z,20.94
2022-08-02T22:25:26.417Z,20.94
2022-08-02T22:41:03.174Z,20.53
2022-08-02T22:48:29.399Z,20.43
2022-08-02T22:50:57.357Z,20.35
2022-08-02T22:53:36.055Z,20.28
2022-08-02T22:56:04.835Z,20.28
2022-08-02T22:58:46.794Z,26.74
2022-08-02T23:05:58.930Z,19.93
2022-08-02T23:08:26.900Z,19.96
2022-08-02T23:10:54.827Z,19.83
2022-08-02T23:13:27.967Z,19.70
2022-08-02T23:16:14.042Z,19.65
2022-08-02T23:19:00.852Z,19.55
2022-08-02T23:31:38.958Z,19.44
2022-08-02T23:39:04.201Z,19.18
2022-08-02T23:41:33.843Z,19.02
2022-08-02T23:44:13.576Z,19.13
2022-08-02T23:46:43.094Z,19.11
2022-08-02T23:49:13.371Z,19.08
2022-08-02T23:54:09.516Z,18.93
2022-08-02T23:59:07.726Z,18.89
